sensor_id;sensor_type;location;lat;lon;timestamp;pressure;altitude;pressure_sealevel;temperature;humidity
18527;BME280;9393;42.158;24.748;2023-02-17T00:02:32;100559.63;;;7.59;54.26
18527;BME280;9393;42.158;24.748;2023-02-17T00:05:38;100549.56;;;7.55;54.18
18527;BME280;9393;42.158;24.748;2023-02-17T00:08:42;100543.78;;;7.64;53.90
18527;BME280;9393;42.158;24.748;2023-02-17T00:11:47;100543.34;;;7.57;53.92
18527;BME280;9393;42.158;24.748;2023-02-17T00:14:51;100542.09;;;7.36;54.67
18527;BME280;9393;42.158;24.748;2023-02-17T00:17:55;100541.47;;;7.33;54.95
18527;BME280;9393;42.158;24.748;2023-02-17T00:20:59;100537.28;;;7.44;54.50
18527;BME280;9393;42.158;24.748;2023-02-17T00:24:02;100539.00;;;7.58;53.87
18527;BME280;9393;42.158;24.748;2023-02-17T00:27:09;100535.59;;;7.70;53.75
18527;BME280;9393;42.158;24.748;2023-02-17T00:30:13;100530.44;;;7.56;53.51
18527;BME280;9393;42.158;24.748;2023-02-17T00:33:18;100527.44;;;7.62;53.30
18527;BME280;9393;42.158;24.748;2023-02-17T00:36:23;100530.03;;;7.62;53.37
18527;BME280;9393;42.158;24.748;2023-02-17T00:39:27;100529.25;;;7.61;53.25
18527;BME280;9393;42.158;24.748;2023-02-17T00:42:32;100521.94;;;7.54;53.64
18527;BME280;9393;42.158;24.748;2023-02-17T00:45:36;100506.25;;;7.55;53.41
18527;BME280;9393;42.158;24.748;2023-02-17T00:48:40;100501.03;;;7.43;53.91
18527;BME280;9393;42.158;24.748;2023-02-17T00:51:45;100500.72;;;7.21;55.06
18527;BME280;9393;42.158;24.748;2023-02-17T00:54:49;100496.63;;;7.31;55.04
18527;BME280;9393;42.158;24.748;2023-02-17T00:57:55;100496.00;;;7.27;54.91
18527;BME280;9393;42.158;24.748;2023-02-17T01:00:59;100500.59;;;6.95;56.42
18527;BME280;9393;42.158;24.748;2023-02-17T01:04:03;100493.56;;;7.24;55.22
18527;BME280;9393;42.158;24.748;2023-02-17T01:07:07;100479.44;;;7.42;54.80
18527;BME280;9393;42.158;24.748;2023-02-17T01:10:11;100490.66;;;7.43;54.16
18527;BME280;9393;42.158;24.748;2023-02-17T01:13:18;100485.59;;;7.54;54.36
18527;BME280;9393;42.158;24.748;2023-02-17T01:16:25;100483.72;;;7.56;54.28
18527;BME280;9393;42.158;24.748;2023-02-17T01:19:32;100475.00;;;7.57;54.28
18527;BME280;9393;42.158;24.748;2023-02-17T01:22:37;100477.59;;;7.44;54.55
18527;BME280;9393;42.158;24.748;2023-02-17T01:25:43;100471.06;;;7.51;54.39
18527;BME280;9393;42.158;24.748;2023-02-17T01:28:51;100465.75;;;7.14;55.04
18527;BME280;9393;42.158;24.748;2023-02-17T01:31:55;100455.88;;;6.92;55.84
18527;BME280;9393;42.158;24.748;2023-02-17T01:35:00;100460.22;;;6.91;55.86
18527;BME280;9393;42.158;24.748;2023-02-17T01:38:09;100455.84;;;6.65;56.67
18527;BME280;9393;42.158;24.748;2023-02-17T01:41:14;100455.91;;;6.07;58.40
18527;BME280;9393;42.158;24.748;2023-02-17T01:44:22;100445.69;;;6.34;57.41
18527;BME280;9393;42.158;24.748;2023-02-17T01:47:26;100442.09;;;6.77;56.23
18527;BME280;9393;42.158;24.748;2023-02-17T01:50:33;100435.22;;;6.90;55.32
18527;BME280;9393;42.158;24.748;2023-02-17T01:53:42;100441.22;;;6.64;56.56
18527;BME280;9393;42.158;24.748;2023-02-17T01:56:49;100440.16;;;7.07;54.96
18527;BME280;9393;42.158;24.748;2023-02-17T01:59:55;100436.19;;;7.29;54.58
18527;BME280;9393;42.158;24.748;2023-02-17T02:03:00;100429.22;;;7.17;54.74
18527;BME280;9393;42.158;24.748;2023-02-17T02:06:06;100432.88;;;7.27;54.66
18527;BME280;9393;42.158;24.748;2023-02-17T02:09:17;100425.47;;;7.21;54.62
18527;BME280;9393;42.158;24.748;2023-02-17T02:12:24;100426.84;;;7.14;54.74
18527;BME280;9393;42.158;24.748;2023-02-17T02:15:34;100427.03;;;6.96;55.19
18527;BME280;9393;42.158;24.748;2023-02-17T02:18:51;100426.09;;;7.11;54.89
18527;BME280;9393;42.158;24.748;2023-02-17T02:22:13;100417.72;;;6.94;54.70
18527;BME280;9393;42.158;24.748;2023-02-17T02:25:32;100420.06;;;7.11;54.60
18527;BME280;9393;42.158;24.748;2023-02-17T02:28:53;100414.44;;;7.04;54.51
18527;BME280;9393;42.158;24.748;2023-02-17T02:35:53;100420.94;;;6.71;55.45
18527;BME280;9393;42.158;24.748;2023-02-17T02:39:02;100426.56;;;6.63;55.69
18527;BME280;9393;42.158;24.748;2023-02-17T02:42:08;100430.84;;;6.64;55.73
18527;BME280;9393;42.158;24.748;2023-02-17T02:45:16;100421.00;;;6.69;55.17
18527;BME280;9393;42.158;24.748;2023-02-17T02:48:20;100430.13;;;6.05;57.13
18527;BME280;9393;42.158;24.748;2023-02-17T02:51:32;100436.88;;;6.36;55.99
18527;BME280;9393;42.158;24.748;2023-02-17T02:54:48;100434.19;;;6.52;55.68
18527;BME280;9393;42.158;24.748;2023-02-17T02:58:01;100424.84;;;6.35;55.83
18527;BME280;9393;42.158;24.748;2023-02-17T03:01:13;100420.88;;;6.44;55.95
18527;BME280;9393;42.158;24.748;2023-02-17T03:04:25;100428.84;;;6.55;55.82
18527;BME280;9393;42.158;24.748;2023-02-17T03:07:37;100423.91;;;5.50;58.89
18527;BME280;9393;42.158;24.748;2023-02-17T03:10:45;100422.03;;;5.52;59.01
18527;BME280;9393;42.158;24.748;2023-02-17T03:13:49;100410.19;;;5.34;59.80
18527;BME280;9393;42.158;24.748;2023-02-17T03:16:53;100414.84;;;5.87;58.12
18527;BME280;9393;42.158;24.748;2023-02-17T03:20:02;100422.75;;;5.84;58.13
18527;BME280;9393;42.158;24.748;2023-02-17T03:23:08;100417.84;;;6.09;57.47
18527;BME280;9393;42.158;24.748;2023-02-17T03:26:12;100412.41;;;5.84;58.22
18527;BME280;9393;42.158;24.748;2023-02-17T03:29:16;100423.84;;;6.09;57.44
18527;BME280;9393;42.158;24.748;2023-02-17T03:32:20;100412.84;;;6.34;57.00
18527;BME280;9393;42.158;24.748;2023-02-17T03:35:24;100422.38;;;6.34;56.70
18527;BME280;9393;42.158;24.748;2023-02-17T03:38:29;100428.09;;;6.10;57.30
18527;BME280;9393;42.158;24.748;2023-02-17T03:41:33;100427.81;;;6.29;56.64
18527;BME280;9393;42.158;24.748;2023-02-17T03:44:36;100436.59;;;6.13;56.96
18527;BME280;9393;42.158;24.748;2023-02-17T03:47:40;100432.81;;;6.32;56.72
18527;BME280;9393;42.158;24.748;2023-02-17T03:50:44;100438.28;;;6.14;57.04
18527;BME280;9393;42.158;24.748;2023-02-17T03:53:49;100432.28;;;5.83;57.42
18527;BME280;9393;42.158;24.748;2023-02-17T03:56:53;100433.16;;;5.98;57.28
18527;BME280;9393;42.158;24.748;2023-02-17T03:59:57;100438.19;;;6.15;56.73
18527;BME280;9393;42.158;24.748;2023-02-17T04:03:00;100426.97;;;6.15;56.62
18527;BME280;9393;42.158;24.748;2023-02-17T04:06:05;100424.31;;;6.02;57.16
18527;BME280;9393;42.158;24.748;2023-02-17T04:09:11;100421.88;;;5.55;58.15
18527;BME280;9393;42.158;24.748;2023-02-17T04:12:14;100413.50;;;4.90;60.79
18527;BME280;9393;42.158;24.748;2023-02-17T04:15:18;100417.72;;;5.07;60.39
18527;BME280;9393;42.158;24.748;2023-02-17T04:18:22;100413.03;;;5.29;59.83
18527;BME280;9393;42.158;24.748;2023-02-17T04:21:26;100422.25;;;4.88;61.00
18527;BME280;9393;42.158;24.748;2023-02-17T04:24:31;100428.28;;;5.34;59.32
18527;BME280;9393;42.158;24.748;2023-02-17T04:27:35;100427.53;;;5.32;59.32
18527;BME280;9393;42.158;24.748;2023-02-17T04:30:41;100415.25;;;5.79;57.92
18527;BME280;9393;42.158;24.748;2023-02-17T04:33:45;100421.22;;;5.51;58.83
18527;BME280;9393;42.158;24.748;2023-02-17T04:36:48;100424.47;;;5.69;58.24
18527;BME280;9393;42.158;24.748;2023-02-17T04:39:54;100425.03;;;5.60;58.59
18527;BME280;9393;42.158;24.748;2023-02-17T04:42:57;100417.94;;;5.78;57.97
18527;BME280;9393;42.158;24.748;2023-02-17T04:46:01;100407.41;;;5.37;59.43
18527;BME280;9393;42.158;24.748;2023-02-17T04:49:05;100403.84;;;5.53;58.52
18527;BME280;9393;42.158;24.748;2023-02-17T04:52:09;100404.25;;;5.62;58.37
18527;BME280;9393;42.158;24.748;2023-02-17T04:55:14;100400.22;;;5.42;58.55
18527;BME280;9393;42.158;24.748;2023-02-17T04:58:18;100409.47;;;5.00;59.50
18527;BME280;9393;42.158;24.748;2023-02-17T05:01:22;100405.75;;;5.36;58.45
18527;BME280;9393;42.158;24.748;2023-02-17T05:04:26;100398.28;;;5.16;58.40
18527;BME280;9393;42.158;24.748;2023-02-17T05:07:30;100402.91;;;5.40;57.79
18527;BME280;9393;42.158;24.748;2023-02-17T05:10:35;100399.00;;;4.88;58.84
18527;BME280;9393;42.158;24.748;2023-02-17T05:13:39;100407.53;;;5.20;58.18
18527;BME280;9393;42.158;24.748;2023-02-17T05:16:43;100404.91;;;5.35;58.29
18527;BME280;9393;42.158;24.748;2023-02-17T05:19:47;100400.22;;;5.42;58.12
18527;BME280;9393;42.158;24.748;2023-02-17T05:22:51;100405.78;;;5.50;57.82
18527;BME280;9393;42.158;24.748;2023-02-17T05:25:56;100396.00;;;5.69;57.39
18527;BME280;9393;42.158;24.748;2023-02-17T05:29:00;100414.28;;;5.52;58.03
18527;BME280;9393;42.158;24.748;2023-02-17T05:32:03;100401.66;;;5.62;57.87
18527;BME280;9393;42.158;24.748;2023-02-17T05:35:07;100417.09;;;5.63;58.06
18527;BME280;9393;42.158;24.748;2023-02-17T05:38:11;100420.34;;;5.81;57.51
18527;BME280;9393;42.158;24.748;2023-02-17T05:41:17;100426.59;;;5.33;59.10
18527;BME280;9393;42.158;24.748;2023-02-17T05:44:21;100422.50;;;5.58;58.06
18527;BME280;9393;42.158;24.748;2023-02-17T05:47:24;100420.91;;;5.72;57.54
18527;BME280;9393;42.158;24.748;2023-02-17T05:50:28;100413.53;;;5.50;58.25
18527;BME280;9393;42.158;24.748;2023-02-17T05:53:36;100418.19;;;5.59;57.80
18527;BME280;9393;42.158;24.748;2023-02-17T05:56:41;100442.78;;;5.36;58.12
18527;BME280;9393;42.158;24.748;2023-02-17T05:59:45;100426.34;;;5.67;57.68
18527;BME280;9393;42.158;24.748;2023-02-17T06:02:49;100427.44;;;6.07;56.86
18527;BME280;9393;42.158;24.748;2023-02-17T06:05:53;100431.78;;;6.21;56.39
18527;BME280;9393;42.158;24.748;2023-02-17T06:08:57;100427.81;;;6.29;56.30
18527;BME280;9393;42.158;24.748;2023-02-17T06:12:02;100437.53;;;6.26;56.75
18527;BME280;9393;42.158;24.748;2023-02-17T06:15:06;100439.03;;;6.44;56.20
18527;BME280;9393;42.158;24.748;2023-02-17T06:18:10;100440.31;;;6.51;56.17
18527;BME280;9393;42.158;24.748;2023-02-17T06:21:14;100437.22;;;6.58;56.17
18527;BME280;9393;42.158;24.748;2023-02-17T06:24:18;100444.88;;;6.88;55.46
18527;BME280;9393;42.158;24.748;2023-02-17T06:27:23;100449.16;;;6.75;55.96
18527;BME280;9393;42.158;24.748;2023-02-17T06:30:27;100438.16;;;6.01;58.07
18527;BME280;9393;42.158;24.748;2023-02-17T06:33:32;100443.09;;;6.48;56.92
18527;BME280;9393;42.158;24.748;2023-02-17T06:36:35;100459.75;;;6.58;56.90
18527;BME280;9393;42.158;24.748;2023-02-17T06:39:39;100446.47;;;6.77;56.29
18527;BME280;9393;42.158;24.748;2023-02-17T06:42:44;100448.94;;;6.92;55.83
18527;BME280;9393;42.158;24.748;2023-02-17T06:45:48;100455.38;;;7.14;55.72
18527;BME280;9393;42.158;24.748;2023-02-17T06:48:52;100442.38;;;7.40;54.92
18527;BME280;9393;42.158;24.748;2023-02-17T06:51:56;100454.84;;;7.48;54.51
18527;BME280;9393;42.158;24.748;2023-02-17T06:55:00;100459.31;;;7.46;55.50
18527;BME280;9393;42.158;24.748;2023-02-17T06:58:05;100448.19;;;7.44;55.11
18527;BME280;9393;42.158;24.748;2023-02-17T07:01:15;100458.34;;;7.86;53.93
18527;BME280;9393;42.158;24.748;2023-02-17T07:04:20;100454.97;;;7.59;54.41
18527;BME280;9393;42.158;24.748;2023-02-17T07:07:24;100453.31;;;7.58;54.15
18527;BME280;9393;42.158;24.748;2023-02-17T07:10:27;100450.75;;;7.71;54.20
18527;BME280;9393;42.158;24.748;2023-02-17T07:13:33;100453.06;;;8.00;53.45
18527;BME280;9393;42.158;24.748;2023-02-17T07:16:37;100449.84;;;8.22;52.56
18527;BME280;9393;42.158;24.748;2023-02-17T07:19:41;100444.31;;;8.14;53.04
18527;BME280;9393;42.158;24.748;2023-02-17T07:22:45;100443.09;;;8.45;52.75
18527;BME280;9393;42.158;24.748;2023-02-17T07:25:49;100451.81;;;8.56;52.68
18527;BME280;9393;42.158;24.748;2023-02-17T07:28:54;100448.28;;;8.45;52.58
18527;BME280;9393;42.158;24.748;2023-02-17T07:31:58;100456.97;;;8.82;52.70
18527;BME280;9393;42.158;24.748;2023-02-17T07:35:02;100449.25;;;9.17;51.72
18527;BME280;9393;42.158;24.748;2023-02-17T07:38:06;100437.25;;;9.38;50.68
18527;BME280;9393;42.158;24.748;2023-02-17T07:41:13;100455.97;;;9.43;50.55
18527;BME280;9393;42.158;24.748;2023-02-17T07:44:18;100447.88;;;9.58;50.22
18527;BME280;9393;42.158;24.748;2023-02-17T07:47:22;100452.47;;;9.55;49.92
18527;BME280;9393;42.158;24.748;2023-02-17T07:50:26;100449.19;;;9.64;49.91
18527;BME280;9393;42.158;24.748;2023-02-17T07:53:30;100453.19;;;9.92;49.73
18527;BME280;9393;42.158;24.748;2023-02-17T07:56:34;100449.53;;;10.05;49.04
18527;BME280;9393;42.158;24.748;2023-02-17T07:59:39;100453.50;;;9.76;49.16
18527;BME280;9393;42.158;24.748;2023-02-17T08:02:43;100458.50;;;9.90;49.43
18527;BME280;9393;42.158;24.748;2023-02-17T08:05:47;100462.00;;;10.24;48.88
18527;BME280;9393;42.158;24.748;2023-02-17T08:08:53;100460.25;;;10.25;48.94
18527;BME280;9393;42.158;24.748;2023-02-17T08:12:16;100451.13;;;10.52;48.32
18527;BME280;9393;42.158;24.748;2023-02-17T08:15:40;100457.63;;;10.69;48.04
18527;BME280;9393;42.158;24.748;2023-02-17T08:18:44;100455.84;;;10.81;47.94
18527;BME280;9393;42.158;24.748;2023-02-17T08:21:48;100455.91;;;11.12;47.38
18527;BME280;9393;42.158;24.748;2023-02-17T08:24:52;100459.94;;;11.17;47.24
18527;BME280;9393;42.158;24.748;2023-02-17T08:27:55;100465.03;;;11.82;45.70
18527;BME280;9393;42.158;24.748;2023-02-17T08:31:01;100458.78;;;11.62;45.69
18527;BME280;9393;42.158;24.748;2023-02-17T08:34:06;100461.91;;;11.56;46.55
18527;BME280;9393;42.158;24.748;2023-02-17T08:37:10;100455.66;;;11.79;46.06
18527;BME280;9393;42.158;24.748;2023-02-17T08:40:15;100456.72;;;12.18;44.85
18527;BME280;9393;42.158;24.748;2023-02-17T08:43:19;100454.56;;;12.53;43.64
18527;BME280;9393;42.158;24.748;2023-02-17T08:46:25;100456.06;;;12.96;43.09
18527;BME280;9393;42.158;24.748;2023-02-17T08:49:29;100449.09;;;13.15;42.51
18527;BME280;9393;42.158;24.748;2023-02-17T08:52:34;100444.25;;;13.21;42.67
18527;BME280;9393;42.158;24.748;2023-02-17T08:55:38;100446.06;;;13.20;42.24
18527;BME280;9393;42.158;24.748;2023-02-17T08:58:50;100453.03;;;13.00;42.96
18527;BME280;9393;42.158;24.748;2023-02-17T09:01:56;100452.38;;;13.18;42.81
18527;BME280;9393;42.158;24.748;2023-02-17T09:05:00;100441.94;;;13.46;42.37
18527;BME280;9393;42.158;24.748;2023-02-17T09:08:04;100449.38;;;13.89;41.70
18527;BME280;9393;42.158;24.748;2023-02-17T09:11:09;100437.34;;;13.87;40.94
18527;BME280;9393;42.158;24.748;2023-02-17T09:14:14;100439.13;;;13.96;41.54
18527;BME280;9393;42.158;24.748;2023-02-17T09:17:19;100442.63;;;13.58;41.29
18527;BME280;9393;42.158;24.748;2023-02-17T09:20:23;100429.38;;;13.79;41.58
18527;BME280;9393;42.158;24.748;2023-02-17T09:23:27;100429.19;;;13.99;41.23
18527;BME280;9393;42.158;24.748;2023-02-17T09:26:30;100429.44;;;14.06;41.59
18527;BME280;9393;42.158;24.748;2023-02-17T09:29:36;100423.28;;;14.25;40.48
18527;BME280;9393;42.158;24.748;2023-02-17T09:32:42;100420.28;;;14.56;40.47
18527;BME280;9393;42.158;24.748;2023-02-17T09:35:46;100414.53;;;15.15;39.21
18527;BME280;9393;42.158;24.748;2023-02-17T09:38:51;100409.19;;;15.25;36.74
18527;BME280;9393;42.158;24.748;2023-02-17T09:41:55;100400.28;;;15.79;33.11
18527;BME280;9393;42.158;24.748;2023-02-17T09:45:00;100398.34;;;15.81;32.03
18527;BME280;9393;42.158;24.748;2023-02-17T09:48:09;100401.88;;;15.72;31.43
18527;BME280;9393;42.158;24.748;2023-02-17T09:51:20;100388.88;;;15.96;31.21
18527;BME280;9393;42.158;24.748;2023-02-17T09:54:29;100391.44;;;16.40;30.55
18527;BME280;9393;42.158;24.748;2023-02-17T09:57:38;100384.88;;;16.86;30.12
18527;BME280;9393;42.158;24.748;2023-02-17T10:00:45;100384.25;;;17.32;29.32
18527;BME280;9393;42.158;24.748;2023-02-17T10:03:54;100372.53;;;17.35;28.85
18527;BME280;9393;42.158;24.748;2023-02-17T10:07:03;100372.72;;;17.74;28.96
18527;BME280;9393;42.158;24.748;2023-02-17T10:10:12;100365.72;;;18.05;28.22
18527;BME280;9393;42.158;24.748;2023-02-17T10:13:19;100359.06;;;18.17;28.12
18527;BME280;9393;42.158;24.748;2023-02-17T10:16:27;100360.50;;;18.28;28.02
18527;BME280;9393;42.158;24.748;2023-02-17T10:19:45;100356.44;;;18.56;28.10
18527;BME280;9393;42.158;24.748;2023-02-17T10:22:52;100349.53;;;18.47;27.37
18527;BME280;9393;42.158;24.748;2023-02-17T10:26:06;100356.50;;;18.40;27.69
18527;BME280;9393;42.158;24.748;2023-02-17T10:29:19;100357.78;;;18.52;27.56
18527;BME280;9393;42.158;24.748;2023-02-17T10:32:34;100351.03;;;18.80;26.84
18527;BME280;9393;42.158;24.748;2023-02-17T10:35:48;100352.88;;;19.02;26.99
18527;BME280;9393;42.158;24.748;2023-02-17T10:39:00;100342.47;;;18.78;26.66
18527;BME280;9393;42.158;24.748;2023-02-17T10:42:08;100336.56;;;19.36;26.54
18527;BME280;9393;42.158;24.748;2023-02-17T10:45:25;100325.69;;;19.54;26.64
18527;BME280;9393;42.158;24.748;2023-02-17T10:48:34;100323.06;;;19.83;26.00
18527;BME280;9393;42.158;24.748;2023-02-17T10:51:42;100319.03;;;20.16;25.96
18527;BME280;9393;42.158;24.748;2023-02-17T10:54:50;100308.16;;;20.11;25.64
18527;BME280;9393;42.158;24.748;2023-02-17T10:58:02;100316.47;;;19.79;25.49
18527;BME280;9393;42.158;24.748;2023-02-17T11:01:07;100300.13;;;20.05;25.41
18527;BME280;9393;42.158;24.748;2023-02-17T11:04:11;100292.66;;;20.08;25.45
18527;BME280;9393;42.158;24.748;2023-02-17T11:07:18;100295.56;;;20.28;24.48
18527;BME280;9393;42.158;24.748;2023-02-17T11:10:28;100295.91;;;20.40;24.74
18527;BME280;9393;42.158;24.748;2023-02-17T11:13:36;100284.22;;;20.34;24.56
18527;BME280;9393;42.158;24.748;2023-02-17T11:16:42;100292.09;;;20.28;23.86
18527;BME280;9393;42.158;24.748;2023-02-17T11:19:55;100278.63;;;20.44;24.33
18527;BME280;9393;42.158;24.748;2023-02-17T11:23:05;100271.44;;;20.59;24.54
18527;BME280;9393;42.158;24.748;2023-02-17T11:26:15;100264.53;;;20.58;24.33
18527;BME280;9393;42.158;24.748;2023-02-17T11:29:21;100257.66;;;20.28;23.53
18527;BME280;9393;42.158;24.748;2023-02-17T11:32:30;100252.97;;;20.44;22.55
18527;BME280;9393;42.158;24.748;2023-02-17T11:35:44;100249.16;;;20.32;22.08
18527;BME280;9393;42.158;24.748;2023-02-17T11:38:52;100248.00;;;20.41;22.28
18527;BME280;9393;42.158;24.748;2023-02-17T11:41:56;100253.81;;;20.51;22.17
18527;BME280;9393;42.158;24.748;2023-02-17T11:45:13;100244.13;;;20.58;21.81
18527;BME280;9393;42.158;24.748;2023-02-17T11:48:35;100243.44;;;20.50;21.13
18527;BME280;9393;42.158;24.748;2023-02-17T11:51:52;100244.13;;;20.58;20.51
18527;BME280;9393;42.158;24.748;2023-02-17T11:55:17;100247.47;;;20.67;20.78
18527;BME280;9393;42.158;24.748;2023-02-17T11:58:36;100252.81;;;20.95;20.98
18527;BME280;9393;42.158;24.748;2023-02-17T12:02:10;100243.31;;;21.07;21.59
18527;BME280;9393;42.158;24.748;2023-02-17T12:05:21;100239.94;;;20.92;21.58
18527;BME280;9393;42.158;24.748;2023-02-17T12:08:34;100232.66;;;21.00;21.42
18527;BME280;9393;42.158;24.748;2023-02-17T12:11:47;100229.03;;;20.80;21.45
18527;BME280;9393;42.158;24.748;2023-02-17T12:15:03;100231.50;;;20.82;21.77
18527;BME280;9393;42.158;24.748;2023-02-17T12:18:23;100220.66;;;20.55;21.62
18527;BME280;9393;42.158;24.748;2023-02-17T12:21:42;100220.13;;;20.88;21.49
18527;BME280;9393;42.158;24.748;2023-02-17T12:25:04;100223.69;;;21.01;21.60
18527;BME280;9393;42.158;24.748;2023-02-17T12:28:35;100218.31;;;20.88;21.13
18527;BME280;9393;42.158;24.748;2023-02-17T12:31:55;100213.38;;;20.85;20.07
18527;BME280;9393;42.158;24.748;2023-02-17T12:35:13;100204.41;;;20.86;19.37
18527;BME280;9393;42.158;24.748;2023-02-17T12:38:23;100204.63;;;20.63;19.96
18527;BME280;9393;42.158;24.748;2023-02-17T12:41:32;100196.69;;;20.91;20.50
18527;BME280;9393;42.158;24.748;2023-02-17T12:44:42;100192.66;;;20.95;20.23
18527;BME280;9393;42.158;24.748;2023-02-17T12:47:51;100186.19;;;21.04;20.41
18527;BME280;9393;42.158;24.748;2023-02-17T12:51:01;100194.97;;;21.05;20.65
18527;BME280;9393;42.158;24.748;2023-02-17T12:54:12;100190.19;;;20.94;21.20
18527;BME280;9393;42.158;24.748;2023-02-17T12:57:21;100188.34;;;20.66;21.08
18527;BME280;9393;42.158;24.748;2023-02-17T13:00:33;100203.53;;;20.79;20.53
18527;BME280;9393;42.158;24.748;2023-02-17T13:03:38;100190.88;;;20.75;20.02
18527;BME280;9393;42.158;24.748;2023-02-17T13:06:45;100197.19;;;21.01;20.25
18527;BME280;9393;42.158;24.748;2023-02-17T13:09:54;100195.97;;;21.04;20.19
18527;BME280;9393;42.158;24.748;2023-02-17T13:13:01;100201.53;;;20.81;20.16
18527;BME280;9393;42.158;24.748;2023-02-17T13:16:09;100207.66;;;20.82;20.40
18527;BME280;9393;42.158;24.748;2023-02-17T13:19:14;100213.78;;;20.82;20.53
18527;BME280;9393;42.158;24.748;2023-02-17T13:22:21;100199.44;;;20.77;21.14
18527;BME280;9393;42.158;24.748;2023-02-17T13:25:28;100197.00;;;20.75;21.13
18527;BME280;9393;42.158;24.748;2023-02-17T13:28:35;100195.63;;;20.58;21.60
18527;BME280;9393;42.158;24.748;2023-02-17T13:31:47;100188.47;;;20.58;21.63
18527;BME280;9393;42.158;24.748;2023-02-17T13:34:59;100204.44;;;20.65;21.92
18527;BME280;9393;42.158;24.748;2023-02-17T13:38:09;100197.00;;;20.54;21.99
18527;BME280;9393;42.158;24.748;2023-02-17T13:41:13;100192.69;;;20.53;21.92
18527;BME280;9393;42.158;24.748;2023-02-17T13:44:25;100204.00;;;20.40;22.11
18527;BME280;9393;42.158;24.748;2023-02-17T13:47:34;100186.47;;;20.39;22.26
18527;BME280;9393;42.158;24.748;2023-02-17T13:50:42;100186.47;;;20.39;22.32
18527;BME280;9393;42.158;24.748;2023-02-17T13:53:49;100182.16;;;20.38;22.41
18527;BME280;9393;42.158;24.748;2023-02-17T13:56:53;100187.78;;;20.29;22.10
18527;BME280;9393;42.158;24.748;2023-02-17T14:00:08;100186.88;;;20.22;22.43
18527;BME280;9393;42.158;24.748;2023-02-17T14:03:19;100187.63;;;20.15;22.60
18527;BME280;9393;42.158;24.748;2023-02-17T14:06:26;100188.78;;;20.28;23.15
18527;BME280;9393;42.158;24.748;2023-02-17T14:09:32;100186.13;;;20.28;23.88
18527;BME280;9393;42.158;24.748;2023-02-17T14:12:36;100179.34;;;20.25;24.13
18527;BME280;9393;42.158;24.748;2023-02-17T14:15:49;100183.09;;;20.09;23.79
18527;BME280;9393;42.158;24.748;2023-02-17T14:19:03;100179.66;;;19.94;24.05
18527;BME280;9393;42.158;24.748;2023-02-17T14:22:21;100181.75;;;19.99;24.45
18527;BME280;9393;42.158;24.748;2023-02-17T14:25:28;100177.63;;;19.96;24.81
18527;BME280;9393;42.158;24.748;2023-02-17T14:28:32;100181.41;;;19.87;24.80
18527;BME280;9393;42.158;24.748;2023-02-17T14:31:37;100182.44;;;19.72;24.12
18527;BME280;9393;42.158;24.748;2023-02-17T14:34:43;100181.97;;;19.68;24.46
18527;BME280;9393;42.158;24.748;2023-02-17T14:37:47;100185.63;;;19.67;24.51
18527;BME280;9393;42.158;24.748;2023-02-17T14:40:51;100191.28;;;19.79;24.59
18527;BME280;9393;42.158;24.748;2023-02-17T14:43:57;100184.44;;;19.70;24.58
18527;BME280;9393;42.158;24.748;2023-02-17T14:47:02;100183.56;;;19.48;24.59
18527;BME280;9393;42.158;24.748;2023-02-17T14:50:08;100187.19;;;19.47;24.29
18527;BME280;9393;42.158;24.748;2023-02-17T14:53:15;100189.63;;;19.34;24.58
18527;BME280;9393;42.158;24.748;2023-02-17T14:56:25;100198.19;;;19.21;24.98
18527;BME280;9393;42.158;24.748;2023-02-17T14:59:30;100202.31;;;19.24;25.33
18527;BME280;9393;42.158;24.748;2023-02-17T15:02:36;100196.19;;;19.08;25.61
18527;BME280;9393;42.158;24.748;2023-02-17T15:05:41;100197.28;;;18.99;25.94
18527;BME280;9393;42.158;24.748;2023-02-17T15:08:46;100196.81;;;18.73;26.85
18527;BME280;9393;42.158;24.748;2023-02-17T15:11:50;100199.19;;;18.68;26.59
18527;BME280;9393;42.158;24.748;2023-02-17T15:14:54;100199.63;;;18.49;26.92
18527;BME280;9393;42.158;24.748;2023-02-17T15:17:58;100195.38;;;18.48;27.00
18527;BME280;9393;42.158;24.748;2023-02-17T15:21:15;100197.22;;;18.39;27.11
18527;BME280;9393;42.158;24.748;2023-02-17T15:24:23;100200.16;;;18.22;27.41
18527;BME280;9393;42.158;24.748;2023-02-17T15:27:32;100209.00;;;18.06;27.98
18527;BME280;9393;42.158;24.748;2023-02-17T15:30:36;100213.38;;;17.83;28.08
18527;BME280;9393;42.158;24.748;2023-02-17T15:33:40;100208.31;;;17.73;28.20
18527;BME280;9393;42.158;24.748;2023-02-17T15:36:46;100213.97;;;17.62;28.03
18527;BME280;9393;42.158;24.748;2023-02-17T15:39:50;100211.34;;;17.54;28.13
18527;BME280;9393;42.158;24.748;2023-02-17T15:42:55;100212.88;;;17.32;28.08
18527;BME280;9393;42.158;24.748;2023-02-17T15:46:04;100212.56;;;17.27;28.42
18527;BME280;9393;42.158;24.748;2023-02-17T15:49:14;100219.03;;;17.08;28.23
18527;BME280;9393;42.158;24.748;2023-02-17T15:52:19;100213.44;;;16.95;28.30
18527;BME280;9393;42.158;24.748;2023-02-17T15:55:23;100215.41;;;16.93;27.96
18527;BME280;9393;42.158;24.748;2023-02-17T15:58:27;100217.56;;;16.74;27.30
18527;BME280;9393;42.158;24.748;2023-02-17T16:01:32;100220.69;;;16.69;27.24
18527;BME280;9393;42.158;24.748;2023-02-17T16:04:37;100224.63;;;16.57;27.01
18527;BME280;9393;42.158;24.748;2023-02-17T16:07:42;100226.25;;;16.50;27.02
18527;BME280;9393;42.158;24.748;2023-02-17T16:10:46;100222.47;;;16.52;26.99
18527;BME280;9393;42.158;24.748;2023-02-17T16:13:53;100228.06;;;16.49;27.39
18527;BME280;9393;42.158;24.748;2023-02-17T16:16:57;100220.63;;;16.29;27.54
18527;BME280;9393;42.158;24.748;2023-02-17T16:20:01;100237.38;;;16.20;27.63
18527;BME280;9393;42.158;24.748;2023-02-17T16:23:06;100240.81;;;16.12;28.35
18527;BME280;9393;42.158;24.748;2023-02-17T16:26:23;100255.72;;;15.95;29.04
18527;BME280;9393;42.158;24.748;2023-02-17T16:29:28;100248.63;;;15.88;28.12